createdAt,value
2023-01-29T00:01:27.645Z,31.33
2023-01-29T00:03:30.405Z,31.30
2023-01-29T00:05:35.361Z,27.35
2023-01-29T00:07:37.979Z,28.27
2023-01-29T00:09:40.765Z,30.27
2023-01-29T00:11:43.627Z,29.23
2023-01-29T00:13:46.967Z,31.65
2023-01-29T00:16:00.203Z,97.03
2023-01-29T00:18:02.768Z,34.83
2023-01-29T00:20:05.813Z,33.30
2023-01-29T00:22:08.459Z,55.78
2023-01-29T00:24:11.537Z,32.45
2023-01-29T00:26:15.392Z,33.97
2023-01-29T00:28:18.084Z,47.85
2023-01-29T00:30:21.479Z,34.15
2023-01-29T00:32:24.101Z,28.95
2023-01-29T00:34:26.644Z,36.25
2023-01-29T00:36:29.286Z,35.92
2023-01-29T00:38:34.724Z,44.13
2023-01-29T00:40:57.490Z,41.22
2023-01-29T00:43:18.415Z,40.67
2023-01-29T00:45:21.268Z,41.47
2023-01-29T00:47:36.601Z,40.85
2023-01-29T00:49:39.136Z,35.95
2023-01-29T00:51:41.808Z,35.38
2023-01-29T00:53:44.410Z,38.08
2023-01-29T00:55:47.060Z,49.80
2023-01-29T00:57:49.797Z,59.22
2023-01-29T00:59:52.568Z,49.55
2023-01-29T01:02:13.542Z,44.03
2023-01-29T01:04:16.154Z,42.72
2023-01-29T01:06:18.822Z,57.88
2023-01-29T01:08:40.151Z,51.40
2023-01-29T01:10:42.821Z,46.17
2023-01-29T01:12:45.511Z,39.63
2023-01-29T01:14:48.945Z,50.03
2023-01-29T01:16:51.638Z,49.03
2023-01-29T01:18:54.191Z,118.95
2023-01-29T01:20:59.852Z,57.00
2023-01-29T01:23:03.349Z,138.73
2023-01-29T01:25:06.165Z,48.92
2023-01-29T01:27:09.109Z,40.25
2023-01-29T01:29:11.688Z,50.17
2023-01-29T01:31:15.723Z,54.72
2023-01-29T01:33:18.687Z,56.55
2023-01-29T01:35:21.378Z,54.50
2023-01-29T01:37:23.971Z,116.00
2023-01-29T01:39:26.649Z,112.82
2023-01-29T01:41:30.578Z,162.55
2023-01-29T01:43:57.597Z,101.28
2023-01-29T01:46:00.293Z,140.93
2023-01-29T01:48:25.123Z,88.50
2023-01-29T01:50:33.842Z,79.25
2023-01-29T01:52:42.059Z,146.60
2023-01-29T01:54:45.052Z,320.13
2023-01-29T01:56:55.718Z,287.30
2023-01-29T01:58:59.699Z,169.43
2023-01-29T02:01:05.030Z,233.93
2023-01-29T02:03:28.609Z,227.65
2023-01-29T02:05:51.895Z,334.83
2023-01-29T02:08:13.232Z,227.93
2023-01-29T02:10:18.872Z,104.03
2023-01-29T02:12:22.279Z,250.77
2023-01-29T02:14:25.548Z,363.13
2023-01-29T02:16:48.200Z,281.58
2023-01-29T02:18:51.274Z,139.05
2023-01-29T02:21:25.218Z,233.27
2023-01-29T02:24:19.091Z,126.22
2023-01-29T02:26:21.601Z,188.95
2023-01-29T02:28:45.718Z,236.20
2023-01-29T02:31:00.489Z,106.97
2023-01-29T02:33:26.210Z,274.45
2023-01-29T02:35:37.629Z,144.75
2023-01-29T02:37:49.081Z,368.85
2023-01-29T02:40:35.871Z,135.73
2023-01-29T02:42:47.469Z,86.60
2023-01-29T02:45:05.482Z,143.07
2023-01-29T02:47:28.212Z,95.20
2023-01-29T02:49:44.393Z,186.20
2023-01-29T02:51:50.489Z,236.10
2023-01-29T02:54:05.561Z,222.30
2023-01-29T02:56:11.673Z,317.35
2023-01-29T02:58:21.127Z,258.98
2023-01-29T03:00:30.856Z,151.23
2023-01-29T03:02:44.198Z,155.10
2023-01-29T03:04:51.784Z,114.80
2023-01-29T03:07:01.001Z,227.25
2023-01-29T03:09:15.003Z,200.18
2023-01-29T03:11:18.336Z,98.22
2023-01-29T03:13:36.973Z,78.95
2023-01-29T03:15:47.636Z,244.70
2023-01-29T03:17:57.584Z,171.90
2023-01-29T03:20:01.670Z,145.00
2023-01-29T03:22:08.718Z,142.48
2023-01-29T03:24:33.758Z,126.30
2023-01-29T03:26:55.586Z,130.05
2023-01-29T03:29:19.209Z,209.95
2023-01-29T03:31:40.575Z,265.77
2023-01-29T03:34:00.201Z,146.20
2023-01-29T03:36:09.311Z,261.17
2023-01-29T03:38:12.196Z,147.80
2023-01-29T03:40:16.231Z,286.70
2023-01-29T03:42:24.898Z,96.15
2023-01-29T03:44:42.033Z,117.30
2023-01-29T03:47:05.117Z,148.18
2023-01-29T03:49:19.239Z,86.00
2023-01-29T03:51:24.738Z,82.68
2023-01-29T03:53:33.111Z,77.72
2023-01-29T03:55:55.651Z,160.43
2023-01-29T03:58:06.000Z,120.82
2023-01-29T04:00:42.820Z,159.52
2023-01-29T04:03:07.894Z,101.65
2023-01-29T04:05:19.975Z,115.28
2023-01-29T04:09:36.640Z,88.72
2023-01-29T04:11:45.828Z,67.70
2023-01-29T04:13:49.378Z,89.35
2023-01-29T04:15:58.691Z,80.70
2023-01-29T04:18:02.025Z,66.72
2023-01-29T04:20:05.035Z,75.15
2023-01-29T04:22:19.274Z,78.47
2023-01-29T04:24:21.956Z,89.07
2023-01-29T04:26:39.600Z,65.80
2023-01-29T04:29:32.334Z,73.97
2023-01-29T04:31:48.032Z,78.72
2023-01-29T04:34:09.950Z,80.22
2023-01-29T04:36:15.235Z,79.57
2023-01-29T04:38:26.560Z,86.38
2023-01-29T04:40:48.096Z,97.45
2023-01-29T04:43:05.427Z,72.53
2023-01-29T04:45:20.762Z,73.30
2023-01-29T04:47:48.038Z,74.80
2023-01-29T04:50:17.781Z,85.63
2023-01-29T04:52:32.504Z,72.55
2023-01-29T04:54:41.148Z,83.00
2023-01-29T04:57:11.461Z,86.57
2023-01-29T04:59:21.019Z,84.28
2023-01-29T05:01:29.009Z,91.57
2023-01-29T05:03:34.306Z,128.48
2023-01-29T05:05:37.351Z,85.15
2023-01-29T05:07:42.953Z,94.85
2023-01-29T05:09:48.209Z,91.72
2023-01-29T05:11:51.101Z,71.35
2023-01-29T05:13:54.280Z,95.97
2023-01-29T05:16:02.396Z,70.95
2023-01-29T05:18:09.312Z,94.28
2023-01-29T05:20:13.068Z,86.18
2023-01-29T05:22:18.809Z,148.05
2023-01-29T05:24:25.622Z,86.15
2023-01-29T05:26:47.150Z,83.28
2023-01-29T05:28:50.013Z,87.53
2023-01-29T05:30:55.774Z,87.70
2023-01-29T05:32:58.800Z,76.38
2023-01-29T05:35:03.112Z,86.78
2023-01-29T05:37:06.494Z,79.70
2023-01-29T05:39:09.062Z,86.97
2023-01-29T05:41:11.709Z,80.60
2023-01-29T05:43:16.881Z,78.50
2023-01-29T05:45:19.633Z,77.13
2023-01-29T05:47:22.341Z,74.88
2023-01-29T05:49:24.925Z,82.30
2023-01-29T05:51:27.549Z,79.97
2023-01-29T05:53:30.920Z,84.40
2023-01-29T05:55:33.472Z,74.82
2023-01-29T05:57:36.283Z,74.28
2023-01-29T05:59:38.904Z,81.13
2023-01-29T06:01:42.173Z,78.70
2023-01-29T06:03:45.830Z,82.72
2023-01-29T06:05:49.037Z,82.57
2023-01-29T06:07:52.199Z,71.85
2023-01-29T06:09:55.054Z,79.88
2023-01-29T06:11:57.746Z,86.15
2023-01-29T06:14:00.343Z,82.57
2023-01-29T06:16:10.338Z,73.13
2023-01-29T06:18:12.994Z,78.40
2023-01-29T06:20:15.908Z,69.70
2023-01-29T06:22:18.700Z,81.07
2023-01-29T06:24:21.304Z,74.93
2023-01-29T06:26:24.041Z,70.03
2023-01-29T06:28:26.700Z,89.03
2023-01-29T06:30:29.339Z,75.25
2023-01-29T06:32:32.141Z,78.65
2023-01-29T06:34:35.243Z,90.88
2023-01-29T06:36:38.053Z,71.30
2023-01-29T06:38:40.839Z,71.53
2023-01-29T06:40:43.450Z,65.82
2023-01-29T06:42:48.337Z,78.95
2023-01-29T06:44:54.546Z,76.22
2023-01-29T06:46:57.090Z,89.53
2023-01-29T06:49:00.948Z,63.80
2023-01-29T06:51:05.532Z,74.40
2023-01-29T06:53:08.174Z,72.60
2023-01-29T06:55:11.088Z,75.03
2023-01-29T06:57:13.705Z,82.47
2023-01-29T06:59:16.306Z,56.83
2023-01-29T07:01:34.793Z,61.72
2023-01-29T07:03:38.850Z,64.95
2023-01-29T07:05:41.480Z,60.17
2023-01-29T07:07:44.462Z,64.93
2023-01-29T07:09:47.027Z,64.03
2023-01-29T07:11:49.775Z,57.75
2023-01-29T07:13:52.548Z,61.80
2023-01-29T07:15:58.303Z,54.53
2023-01-29T07:18:02.805Z,66.32
2023-01-29T07:20:06.644Z,57.33
2023-01-29T07:22:09.273Z,55.67
2023-01-29T07:24:11.865Z,55.35
2023-01-29T07:26:14.676Z,62.67
2023-01-29T07:28:23.599Z,52.55
2023-01-29T07:30:26.298Z,45.75
2023-01-29T07:32:29.353Z,55.30
2023-01-29T07:34:31.915Z,52.00
2023-01-29T07:36:34.418Z,50.40
2023-01-29T07:38:37.092Z,49.25
2023-01-29T07:40:39.631Z,48.67
2023-01-29T07:42:44.177Z,52.13
2023-01-29T07:44:46.945Z,48.53
2023-01-29T07:46:49.693Z,41.85
2023-01-29T07:48:52.336Z,38.55
2023-01-29T07:50:56.663Z,51.38
2023-01-29T07:52:59.367Z,44.38
2023-01-29T07:55:02.028Z,43.63
2023-01-29T07:57:06.074Z,47.97
2023-01-29T07:59:08.637Z,42.40
2023-01-29T08:01:11.308Z,43.40
2023-01-29T08:03:17.793Z,39.60
2023-01-29T08:05:20.510Z,41.97
2023-01-29T08:07:23.165Z,47.90
2023-01-29T08:09:25.789Z,42.72
2023-01-29T08:11:28.346Z,39.50
2023-01-29T08:13:31.571Z,35.65
2023-01-29T08:15:37.931Z,43.63
2023-01-29T08:17:56.129Z,36.95
2023-01-29T08:20:02.672Z,35.75
2023-01-29T08:22:07.010Z,37.58
2023-01-29T08:24:09.709Z,37.85
2023-01-29T08:26:12.325Z,35.88
2023-01-29T08:28:14.959Z,37.03
2023-01-29T08:30:18.627Z,39.28
2023-01-29T08:32:21.500Z,28.65
2023-01-29T08:34:24.278Z,36.67
2023-01-29T08:36:26.858Z,32.63
2023-01-29T08:38:29.495Z,32.00
2023-01-29T08:40:34.236Z,25.90
2023-01-29T08:42:36.899Z,25.63
2023-01-29T08:44:39.513Z,26.50
2023-01-29T08:46:42.081Z,30.98
2023-01-29T08:48:44.717Z,25.67
2023-01-29T08:50:47.297Z,34.35
2023-01-29T08:52:50.015Z,27.17
2023-01-29T08:54:52.623Z,25.50
2023-01-29T08:56:56.161Z,22.75
2023-01-29T08:58:59.252Z,24.33
2023-01-29T09:01:12.909Z,18.02
2023-01-29T09:03:15.538Z,21.73
2023-01-29T09:05:18.655Z,21.35
2023-01-29T09:07:21.959Z,25.50
2023-01-29T09:09:24.551Z,18.85
2023-01-29T09:11:27.166Z,20.45
2023-01-29T09:13:30.073Z,23.23
2023-01-29T09:15:32.657Z,25.70
2023-01-29T09:17:35.298Z,24.23
2023-01-29T09:19:37.860Z,23.48
2023-01-29T09:21:40.416Z,21.08
2023-01-29T09:23:43.091Z,22.75
2023-01-29T09:25:45.635Z,22.25
2023-01-29T09:27:48.184Z,27.88
2023-01-29T09:29:50.996Z,23.77
2023-01-29T09:31:53.720Z,26.13
2023-01-29T09:33:56.492Z,29.00
2023-01-29T09:35:59.138Z,31.02
2023-01-29T09:38:02.056Z,28.35
2023-01-29T09:40:05.022Z,25.83
2023-01-29T09:42:36.068Z,24.17
2023-01-29T09:44:53.525Z,25.75
2023-01-29T09:46:57.234Z,24.02
2023-01-29T09:49:20.403Z,24.00
2023-01-29T09:51:31.670Z,23.65
2023-01-29T09:53:43.779Z,16.98
2023-01-29T09:57:58.584Z,21.17
2023-01-29T10:00:01.301Z,21.67
2023-01-29T10:02:19.424Z,16.20
2023-01-29T10:05:01.707Z,22.25
2023-01-29T10:07:25.315Z,17.05
2023-01-29T10:09:30.609Z,15.50
2023-01-29T10:11:46.226Z,17.92
2023-01-29T10:14:12.979Z,14.10
2023-01-29T10:16:33.692Z,14.10
2023-01-29T10:18:57.718Z,13.27
2023-01-29T10:21:27.476Z,15.10
2023-01-29T10:23:36.846Z,12.75
2023-01-29T10:25:43.183Z,7.57
2023-01-29T10:27:52.100Z,12.57
2023-01-29T10:29:56.255Z,13.13
2023-01-29T10:32:05.224Z,12.25
2023-01-29T10:34:33.332Z,11.45
2023-01-29T10:36:49.481Z,9.65
2023-01-29T10:38:52.502Z,11.30
2023-01-29T10:41:10.321Z,13.27
2023-01-29T10:43:29.330Z,15.05
2023-01-29T10:46:00.547Z,16.80
2023-01-29T10:48:05.001Z,17.00
2023-01-29T10:50:42.827Z,13.45
2023-01-29T10:53:04.024Z,14.63
2023-01-29T10:55:24.812Z,12.05
2023-01-29T10:57:35.443Z,11.95
2023-01-29T11:00:02.634Z,16.13
2023-01-29T11:02:19.734Z,17.20
2023-01-29T11:04:22.907Z,14.00
2023-01-29T11:06:29.790Z,15.77
2023-01-29T11:08:59.198Z,13.75
2023-01-29T11:11:17.547Z,11.32
2023-01-29T11:13:20.393Z,11.23
2023-01-29T11:15:33.501Z,8.50
2023-01-29T11:17:36.058Z,10.85
2023-01-29T11:19:43.972Z,10.88
2023-01-29T11:21:59.715Z,8.95
2023-01-29T11:24:15.478Z,6.72
2023-01-29T11:26:22.591Z,7.22
2023-01-29T11:28:46.371Z,8.05
2023-01-29T11:30:53.923Z,6.32
2023-01-29T11:33:07.056Z,5.85
2023-01-29T11:35:33.583Z,6.00
2023-01-29T11:37:39.384Z,6.03
2023-01-29T11:39:47.426Z,8.52
2023-01-29T11:42:04.807Z,4.15
2023-01-29T11:44:24.475Z,4.80
2023-01-29T11:46:27.233Z,2.80
2023-01-29T11:48:48.033Z,4.28
2023-01-29T11:51:05.534Z,4.63
2023-01-29T11:53:35.382Z,3.70
2023-01-29T11:55:50.221Z,3.70
2023-01-29T11:58:12.736Z,4.70
2023-01-29T12:00:25.245Z,3.60
2023-01-29T12:02:42.229Z,3.45
2023-01-29T12:04:45.583Z,5.43
2023-01-29T12:06:53.194Z,4.25
2023-01-29T12:09:00.356Z,4.03
2023-01-29T12:11:26.366Z,3.10
2023-01-29T12:13:30.779Z,4.22
2023-01-29T12:15:33.355Z,3.90
2023-01-29T12:17:39.277Z,4.28
2023-01-29T12:19:53.927Z,4.22
2023-01-29T12:22:04.191Z,5.18
2023-01-29T12:24:28.193Z,3.72
2023-01-29T12:27:09.486Z,5.78
2023-01-29T12:29:36.675Z,3.75
2023-01-29T12:32:30.470Z,3.20
2023-01-29T12:35:18.146Z,4.13
2023-01-29T12:37:35.985Z,4.50
2023-01-29T12:39:38.583Z,4.83
2023-01-29T12:41:56.189Z,5.00
2023-01-29T12:44:43.818Z,3.43
2023-01-29T12:46:55.066Z,6.77
2023-01-29T12:49:02.349Z,4.43
2023-01-29T12:51:19.252Z,6.30
2023-01-29T12:53:34.577Z,3.43
2023-01-29T12:55:54.110Z,5.20
2023-01-29T12:58:00.364Z,4.97
2023-01-29T13:00:26.057Z,5.27
2023-01-29T13:02:46.149Z,5.03
2023-01-29T13:05:00.208Z,5.80
2023-01-29T13:07:12.753Z,5.57
2023-01-29T13:09:23.665Z,5.33
2023-01-29T13:11:41.304Z,4.30
2023-01-29T13:13:54.821Z,5.20
2023-01-29T13:16:00.242Z,6.27
2023-01-29T13:18:18.092Z,5.03
2023-01-29T13:20:20.620Z,5.80
2023-01-29T13:22:31.788Z,4.53
2023-01-29T13:24:40.360Z,2.30
2023-01-29T13:26:47.841Z,8.23
2023-01-29T13:28:52.551Z,7.77
2023-01-29T13:31:29.454Z,5.63
2023-01-29T13:33:32.223Z,5.93
2023-01-29T13:35:42.242Z,5.23
2023-01-29T13:37:51.319Z,4.67
2023-01-29T13:39:56.079Z,6.97
2023-01-29T13:42:01.225Z,7.90
2023-01-29T13:44:08.414Z,8.27
2023-01-29T13:46:15.148Z,7.00
2023-01-29T13:48:29.227Z,8.20
2023-01-29T13:50:43.634Z,10.47
2023-01-29T13:52:58.399Z,9.57
2023-01-29T13:55:31.245Z,13.10
2023-01-29T13:57:39.841Z,7.07
2023-01-29T13:59:55.556Z,8.60
2023-01-29T14:02:05.559Z,9.93
2023-01-29T14:04:22.828Z,7.90
2023-01-29T14:06:46.856Z,10.20
2023-01-29T14:08:49.594Z,9.33
2023-01-29T14:11:15.506Z,8.27
2023-01-29T14:13:21.674Z,15.43
2023-01-29T14:15:27.916Z,10.90
2023-01-29T14:17:30.885Z,13.03
2023-01-29T14:19:34.695Z,12.57
2023-01-29T14:21:37.967Z,10.30
2023-01-29T14:23:46.934Z,10.03
2023-01-29T14:25:49.833Z,9.83
2023-01-29T14:27:53.257Z,9.10
2023-01-29T14:30:10.396Z,11.03
2023-01-29T14:32:25.188Z,10.70
2023-01-29T14:34:33.114Z,11.37
2023-01-29T14:36:43.738Z,10.20
2023-01-29T14:38:50.333Z,10.67
2023-01-29T14:41:08.094Z,11.03
2023-01-29T14:43:20.316Z,12.87
2023-01-29T14:45:41.990Z,9.90
2023-01-29T14:47:44.627Z,12.38
2023-01-29T14:49:58.417Z,17.40
2023-01-29T14:52:01.836Z,13.17
2023-01-29T14:54:23.284Z,10.00
2023-01-29T14:56:44.980Z,9.80
2023-01-29T14:58:56.220Z,9.15
2023-01-29T15:01:01.215Z,16.40
2023-01-29T15:03:12.297Z,8.63
2023-01-29T15:05:21.718Z,14.47
2023-01-29T15:07:30.491Z,12.33
2023-01-29T15:09:55.637Z,9.90
2023-01-29T15:12:39.308Z,16.23
2023-01-29T15:14:51.232Z,12.50
2023-01-29T15:17:08.193Z,7.75
2023-01-29T15:19:25.175Z,8.70
2023-01-29T15:21:27.812Z,14.67
2023-01-29T15:23:32.793Z,10.90
2023-01-29T15:25:38.005Z,10.87
2023-01-29T15:27:45.701Z,11.13
2023-01-29T15:29:57.299Z,9.90
2023-01-29T15:32:01.506Z,8.90
2023-01-29T15:34:07.640Z,10.57
2023-01-29T15:36:28.298Z,11.27
2023-01-29T15:38:31.700Z,14.70
2023-01-29T15:40:34.739Z,11.43
2023-01-29T15:42:48.870Z,10.83
2023-01-29T15:44:56.233Z,10.47
2023-01-29T15:47:01.631Z,11.97
2023-01-29T15:49:10.405Z,12.17
2023-01-29T15:51:31.967Z,10.37
2023-01-29T15:53:42.855Z,9.07
2023-01-29T15:55:46.603Z,10.43
2023-01-29T15:57:50.435Z,10.63
2023-01-29T15:59:56.603Z,12.60
2023-01-29T16:01:59.337Z,10.57
2023-01-29T16:04:03.178Z,8.07
2023-01-29T16:06:07.401Z,8.40
2023-01-29T16:08:15.087Z,8.00
2023-01-29T16:10:28.369Z,7.10
2023-01-29T16:12:33.640Z,10.97
2023-01-29T16:14:36.836Z,9.03
2023-01-29T16:16:39.464Z,10.30
2023-01-29T16:18:59.490Z,11.70
2023-01-29T16:21:40.467Z,9.37
2023-01-29T16:23:51.712Z,9.23
2023-01-29T16:25:57.453Z,32.72
2023-01-29T16:28:04.643Z,10.83
2023-01-29T16:30:07.684Z,10.23
2023-01-29T16:32:14.060Z,11.07
2023-01-29T16:34:30.273Z,9.67
2023-01-29T16:36:33.059Z,14.03
2023-01-29T16:38:36.553Z,18.63
2023-01-29T16:40:40.909Z,9.70
2023-01-29T16:42:43.507Z,10.23
2023-01-29T16:44:54.644Z,8.53
2023-01-29T16:47:06.175Z,11.40
2023-01-29T16:49:27.307Z,12.82
2023-01-29T16:51:39.764Z,12.40
2023-01-29T16:53:55.669Z,10.93
2023-01-29T16:56:06.023Z,12.10
2023-01-29T16:58:30.598Z,12.33
2023-01-29T17:00:33.688Z,10.73
2023-01-29T17:02:39.886Z,9.10
2023-01-29T17:04:42.630Z,8.73
2023-01-29T17:06:48.307Z,10.83
2023-01-29T17:08:51.916Z,13.47
2023-01-29T17:10:54.721Z,10.57
2023-01-29T17:13:09.096Z,11.00
2023-01-29T17:15:43.270Z,12.73
2023-01-29T17:17:49.232Z,10.90
2023-01-29T17:19:51.886Z,9.83
2023-01-29T17:21:54.683Z,10.37
2023-01-29T17:23:57.419Z,13.97
2023-01-29T17:26:00.220Z,11.00
2023-01-29T17:28:03.619Z,9.67
2023-01-29T17:30:06.973Z,11.83
2023-01-29T17:32:10.678Z,12.73
2023-01-29T17:34:15.988Z,13.03
2023-01-29T17:36:19.195Z,11.47
2023-01-29T17:38:26.420Z,12.03
2023-01-29T17:40:50.532Z,10.10
2023-01-29T17:42:53.170Z,9.93
2023-01-29T17:44:55.960Z,11.97
2023-01-29T17:46:58.576Z,11.63
2023-01-29T17:49:01.235Z,13.37
2023-01-29T17:51:04.823Z,13.87
2023-01-29T17:53:07.539Z,12.73
2023-01-29T17:55:10.260Z,14.23
2023-01-29T17:57:15.355Z,12.70
2023-01-29T17:59:23.606Z,7.47
2023-01-29T18:01:26.444Z,11.03
2023-01-29T18:03:30.511Z,11.07
2023-01-29T18:05:33.389Z,12.80
2023-01-29T18:07:38.080Z,12.40
2023-01-29T18:09:43.273Z,16.30
2023-01-29T18:11:47.373Z,14.20
2023-01-29T18:13:49.965Z,15.17
2023-01-29T18:15:52.800Z,11.40
2023-01-29T18:17:55.485Z,15.30
2023-01-29T18:19:59.701Z,12.80
2023-01-29T18:22:02.391Z,13.07
2023-01-29T18:24:05.267Z,10.70
2023-01-29T18:26:10.792Z,20.10
2023-01-29T18:28:17.330Z,12.53
2023-01-29T18:30:20.353Z,14.97
2023-01-29T18:32:23.087Z,12.70
2023-01-29T18:34:25.891Z,17.83
2023-01-29T18:36:28.894Z,10.63
2023-01-29T18:38:33.510Z,12.77
2023-01-29T18:40:36.127Z,13.13
2023-01-29T18:42:39.059Z,15.83
2023-01-29T18:44:41.627Z,18.27
2023-01-29T18:46:44.300Z,19.07
2023-01-29T18:48:47.034Z,22.40
2023-01-29T18:50:51.155Z,60.17
2023-01-29T18:52:54.482Z,13.53
2023-01-29T18:54:57.304Z,14.80
2023-01-29T18:57:13.184Z,15.17
2023-01-29T18:59:17.153Z,13.73
2023-01-29T19:01:19.908Z,13.03
2023-01-29T19:03:22.708Z,18.13
2023-01-29T19:05:25.903Z,11.80
2023-01-29T19:07:28.533Z,78.27
2023-01-29T19:09:31.237Z,16.40
2023-01-29T19:11:33.946Z,15.03
2023-01-29T19:13:38.131Z,15.43
2023-01-29T19:15:43.657Z,16.63
2023-01-29T19:17:46.283Z,16.43
2023-01-29T19:19:49.237Z,15.73
2023-01-29T19:21:55.659Z,22.57
2023-01-29T19:23:58.371Z,13.83
2023-01-29T19:26:01.053Z,14.03
2023-01-29T19:28:04.076Z,19.03
2023-01-29T19:30:07.828Z,26.07
2023-01-29T19:32:10.583Z,19.07
2023-01-29T19:34:13.424Z,23.20
2023-01-29T19:36:16.080Z,30.50
2023-01-29T19:38:21.362Z,24.13
2023-01-29T19:40:24.541Z,14.73
2023-01-29T19:42:28.108Z,17.77
2023-01-29T19:44:32.174Z,17.00
2023-01-29T19:46:35.977Z,14.67
2023-01-29T19:48:38.725Z,17.07
2023-01-29T19:50:42.877Z,16.13
2023-01-29T19:52:56.566Z,17.80
2023-01-29T19:55:04.610Z,25.37
2023-01-29T19:57:09.977Z,17.60
2023-01-29T19:59:12.603Z,18.67
2023-01-29T20:01:18.209Z,16.63
2023-01-29T20:03:20.816Z,20.27
2023-01-29T20:05:24.300Z,17.53
2023-01-29T20:07:29.385Z,22.90
2023-01-29T20:09:32.047Z,18.83
2023-01-29T20:11:36.015Z,17.70
2023-01-29T20:13:38.620Z,19.00
2023-01-29T20:15:45.919Z,16.87
2023-01-29T20:17:48.588Z,18.27
2023-01-29T20:19:51.202Z,18.60
2023-01-29T20:21:54.840Z,162.93
2023-01-29T20:23:58.052Z,19.27
2023-01-29T20:26:01.567Z,18.17
2023-01-29T20:28:07.844Z,19.37
2023-01-29T20:30:11.604Z,17.57
2023-01-29T20:32:15.830Z,18.57
2023-01-29T20:34:18.475Z,23.37
2023-01-29T20:36:21.427Z,43.90
2023-01-29T20:38:26.274Z,17.00
2023-01-29T20:40:29.319Z,19.17
2023-01-29T20:42:32.027Z,17.67
2023-01-29T20:44:34.682Z,39.07
2023-01-29T20:46:38.277Z,18.07
2023-01-29T20:49:09.638Z,16.70
2023-01-29T20:51:15.895Z,16.13
2023-01-29T20:53:18.646Z,26.00
2023-01-29T20:55:21.386Z,21.43
2023-01-29T20:58:05.042Z,19.27
2023-01-29T21:00:09.831Z,17.70
2023-01-29T21:02:23.740Z,21.07
2023-01-29T21:04:27.475Z,17.80
2023-01-29T21:06:33.825Z,21.00
2023-01-29T21:08:37.716Z,18.30
2023-01-29T21:10:42.479Z,23.77
2023-01-29T21:12:45.802Z,23.13
2023-01-29T21:14:48.478Z,19.77
2023-01-29T21:16:51.163Z,20.87
2023-01-29T21:18:57.957Z,20.20
2023-01-29T21:21:00.630Z,24.77
2023-01-29T21:23:06.601Z,20.13
2023-01-29T21:25:10.242Z,14.13
2023-01-29T21:27:12.831Z,19.53
2023-01-29T21:29:15.790Z,19.37
2023-01-29T21:31:18.781Z,21.63
2023-01-29T21:33:21.479Z,21.70
2023-01-29T21:35:24.174Z,24.23
2023-01-29T21:37:26.843Z,22.07
2023-01-29T21:39:29.509Z,18.43
2023-01-29T21:41:50.438Z,17.97
2023-01-29T21:43:53.161Z,19.13
2023-01-29T21:45:58.112Z,21.70
2023-01-29T21:48:00.859Z,21.93
2023-01-29T21:50:03.726Z,17.23
2023-01-29T21:52:06.942Z,17.23
2023-01-29T21:54:09.620Z,16.97
2023-01-29T21:56:12.507Z,19.43
2023-01-29T21:58:15.206Z,19.50
2023-01-29T22:00:25.800Z,20.43
2023-01-29T22:02:31.050Z,18.70
2023-01-29T22:04:33.851Z,19.23
2023-01-29T22:06:36.526Z,21.33
2023-01-29T22:08:39.159Z,20.60
2023-01-29T22:10:42.328Z,20.30
2023-01-29T22:12:46.698Z,22.40
2023-01-29T22:14:49.549Z,17.00
2023-01-29T22:16:52.365Z,15.93
2023-01-29T22:18:54.979Z,20.27
2023-01-29T22:21:02.846Z,14.67
2023-01-29T22:23:08.738Z,17.53
2023-01-29T22:25:11.429Z,14.23
2023-01-29T22:27:15.427Z,18.60
2023-01-29T22:29:18.395Z,13.83
2023-01-29T22:31:22.335Z,16.97
2023-01-29T22:33:25.452Z,14.80
2023-01-29T22:35:28.528Z,16.37
2023-01-29T22:37:31.145Z,18.27
2023-01-29T22:39:33.876Z,17.57
2023-01-29T22:41:36.781Z,17.53
2023-01-29T22:43:41.498Z,17.53
2023-01-29T22:45:44.900Z,17.97
2023-01-29T22:47:50.121Z,23.03
2023-01-29T22:49:52.869Z,21.30
2023-01-29T22:52:10.238Z,19.70
2023-01-29T22:54:13.056Z,20.60
2023-01-29T22:56:16.259Z,14.83
2023-01-29T22:58:18.899Z,17.73
2023-01-29T23:00:21.698Z,20.60
2023-01-29T23:02:24.312Z,22.87
2023-01-29T23:04:28.013Z,22.37
2023-01-29T23:06:30.645Z,22.40
2023-01-29T23:08:34.505Z,16.43
2023-01-29T23:10:37.659Z,20.13
2023-01-29T23:12:40.330Z,24.77
2023-01-29T23:14:43.218Z,19.83
2023-01-29T23:16:45.972Z,21.10
2023-01-29T23:18:55.789Z,26.17
2023-01-29T23:20:58.609Z,20.57
2023-01-29T23:23:01.283Z,25.73
2023-01-29T23:25:04.448Z,20.03
2023-01-29T23:27:16.259Z,18.00
2023-01-29T23:29:19.195Z,23.67
2023-01-29T23:31:21.969Z,19.63
2023-01-29T23:33:24.659Z,24.23
2023-01-29T23:35:27.232Z,18.30
2023-01-29T23:37:30.353Z,22.50
2023-01-29T23:39:33.124Z,22.37
2023-01-29T23:41:35.910Z,21.37
2023-01-29T23:43:39.823Z,26.20
2023-01-29T23:45:42.480Z,14.80
2023-01-29T23:47:45.147Z,51.30
2023-01-29T23:49:47.774Z,18.13
2023-01-29T23:51:51.478Z,17.50
2023-01-29T23:53:54.413Z,21.10
2023-01-29T23:56:03.370Z,19.90
2023-01-29T23:58:06.159Z,18.20
